createdAt,value
2023-02-20T00:02:43.186Z,0.70
2023-02-20T00:05:45.506Z,0.50
2023-02-20T00:08:47.676Z,0.50
2023-02-20T00:11:49.858Z,0.73
2023-02-20T00:14:52.168Z,0.75
2023-02-20T00:17:54.303Z,0.70
2023-02-20T00:20:56.621Z,0.57
2023-02-20T00:23:58.797Z,0.55
2023-02-20T00:27:00.995Z,0.68
2023-02-20T00:30:04.176Z,0.80
2023-02-20T00:33:06.458Z,1.10
2023-02-20T00:36:08.798Z,0.52
2023-02-20T00:39:11.008Z,0.47
2023-02-20T00:42:13.650Z,0.57
2023-02-20T00:45:17.120Z,0.70
2023-02-20T00:48:19.278Z,0.40
2023-02-20T00:51:21.453Z,0.80
2023-02-20T00:54:23.707Z,0.50
2023-02-20T00:57:26.853Z,0.80
2023-02-20T01:00:30.277Z,0.73
2023-02-20T01:03:32.462Z,0.70
2023-02-20T01:06:34.599Z,0.70
2023-02-20T01:09:36.886Z,0.70
2023-02-20T01:12:39.216Z,0.80
2023-02-20T01:15:41.728Z,1.17
2023-02-20T01:18:44.222Z,1.00
2023-02-20T01:21:46.616Z,0.90
2023-02-20T01:24:48.868Z,0.90
2023-02-20T01:27:51.127Z,1.00
2023-02-20T01:30:53.366Z,0.95
2023-02-20T01:33:55.665Z,0.83
2023-02-20T01:36:57.924Z,0.70
2023-02-20T01:40:01.278Z,0.80
2023-02-20T01:43:04.480Z,0.65
2023-02-20T01:46:40.327Z,0.52
2023-02-20T01:49:54.668Z,0.77
2023-02-20T01:52:58.826Z,0.70
2023-02-20T01:56:03.148Z,0.55
2023-02-20T01:59:06.643Z,0.77
2023-02-20T02:02:09.351Z,0.68
2023-02-20T02:05:12.252Z,0.80
2023-02-20T02:08:15.128Z,0.70
2023-02-20T02:11:18.542Z,0.60
2023-02-20T02:14:20.765Z,0.63
2023-02-20T02:17:33.655Z,0.80
2023-02-20T02:20:50.851Z,0.70
2023-02-20T02:24:08.431Z,0.98
2023-02-20T02:27:16.664Z,1.02
2023-02-20T02:30:18.849Z,1.00
2023-02-20T02:33:31.364Z,1.27
2023-02-20T02:36:49.938Z,1.00
2023-02-20T02:39:55.178Z,1.23
2023-02-20T02:43:22.402Z,1.13
2023-02-20T02:46:30.401Z,1.30
2023-02-20T02:49:38.610Z,1.55
2023-02-20T02:52:48.958Z,1.37
2023-02-20T02:55:51.158Z,1.20
2023-02-20T02:58:54.679Z,1.48
2023-02-20T03:01:59.948Z,1.40
2023-02-20T03:05:04.188Z,1.45
2023-02-20T03:08:32.447Z,1.17
2023-02-20T03:11:36.518Z,1.20
2023-02-20T03:14:58.937Z,1.35
2023-02-20T03:18:10.911Z,1.58
2023-02-20T03:21:16.508Z,1.60
2023-02-20T03:24:20.112Z,1.43
2023-02-20T03:27:39.148Z,2.15
2023-02-20T03:30:51.993Z,1.63
2023-02-20T03:34:17.159Z,1.70
2023-02-20T03:37:39.881Z,1.75
2023-02-20T03:41:00.685Z,1.60
2023-02-20T03:44:04.633Z,1.90
2023-02-20T03:47:09.578Z,1.70
2023-02-20T03:50:13.054Z,2.50
2023-02-20T03:53:15.850Z,2.95
2023-02-20T03:56:24.660Z,2.83
2023-02-20T03:59:29.682Z,2.00
2023-02-20T04:02:33.819Z,2.15
2023-02-20T04:05:38.355Z,1.88
2023-02-20T04:08:44.479Z,2.10
2023-02-20T04:11:52.723Z,2.27
2023-02-20T04:14:56.477Z,2.10
2023-02-20T04:18:02.399Z,2.20
2023-02-20T04:21:08.118Z,1.77
2023-02-20T04:24:17.276Z,2.17
2023-02-20T04:27:19.920Z,2.10
2023-02-20T04:30:28.087Z,1.75
2023-02-20T04:33:30.384Z,1.58
2023-02-20T04:36:38.101Z,2.00
2023-02-20T04:39:41.184Z,2.15
2023-02-20T04:42:43.369Z,2.30
2023-02-20T04:45:45.528Z,2.20
2023-02-20T04:48:48.328Z,2.10
2023-02-20T04:51:50.736Z,2.38
2023-02-20T04:54:53.131Z,2.35
2023-02-20T04:57:58.184Z,2.40
2023-02-20T05:01:03.963Z,2.38
2023-02-20T05:04:06.112Z,2.00
2023-02-20T05:07:08.299Z,2.08
2023-02-20T05:10:13.466Z,2.42
2023-02-20T05:13:15.726Z,2.40
2023-02-20T05:16:17.929Z,2.20
2023-02-20T05:19:20.073Z,2.72
2023-02-20T05:22:23.153Z,2.75
2023-02-20T05:25:25.414Z,2.25
2023-02-20T05:28:27.561Z,2.20
2023-02-20T05:31:29.869Z,2.28
2023-02-20T05:34:32.101Z,2.55
2023-02-20T05:37:34.299Z,2.60
2023-02-20T05:40:36.496Z,2.40
2023-02-20T05:43:38.638Z,2.67
2023-02-20T05:46:41.643Z,2.97
2023-02-20T05:49:43.848Z,2.92
2023-02-20T05:52:46.983Z,3.15
2023-02-20T05:55:49.266Z,3.25
2023-02-20T05:58:51.528Z,2.80
2023-02-20T06:01:57.650Z,2.42
2023-02-20T06:05:00.119Z,2.22
2023-02-20T06:08:02.524Z,2.10
2023-02-20T06:11:04.729Z,1.85
2023-02-20T06:14:07.280Z,2.00
2023-02-20T06:17:09.441Z,1.98
2023-02-20T06:20:11.639Z,1.85
2023-02-20T06:23:13.929Z,1.83
2023-02-20T06:26:17.012Z,1.63
2023-02-20T06:29:19.553Z,2.23
2023-02-20T06:32:21.837Z,1.88
2023-02-20T06:35:24.082Z,1.92
2023-02-20T06:38:26.718Z,1.77
2023-02-20T06:41:28.875Z,1.92
2023-02-20T06:44:33.277Z,1.70
2023-02-20T06:47:35.592Z,1.75
2023-02-20T06:50:38.378Z,1.95
2023-02-20T06:53:45.660Z,1.88
2023-02-20T06:56:48.271Z,2.03
2023-02-20T06:59:50.671Z,1.90
2023-02-20T07:02:53.032Z,1.63
2023-02-20T07:05:58.963Z,1.65
2023-02-20T07:09:02.769Z,1.52
2023-02-20T07:12:05.398Z,1.80
2023-02-20T07:15:08.277Z,2.00
2023-02-20T07:18:10.690Z,1.98
2023-02-20T07:21:12.959Z,1.83
2023-02-20T07:24:15.315Z,1.83
2023-02-20T07:27:20.349Z,1.70
2023-02-20T07:30:26.315Z,1.50
2023-02-20T07:33:30.894Z,1.77
2023-02-20T07:36:33.455Z,1.58
2023-02-20T07:39:35.976Z,1.40
2023-02-20T07:42:38.250Z,1.50
2023-02-20T07:45:56.576Z,1.50
2023-02-20T07:49:02.211Z,1.60
2023-02-20T07:52:08.050Z,1.75
2023-02-20T07:55:13.156Z,1.70
2023-02-20T07:58:18.191Z,1.38
2023-02-20T08:01:20.541Z,1.70
2023-02-20T08:04:22.997Z,1.33
2023-02-20T08:07:25.777Z,1.65
2023-02-20T08:10:28.614Z,1.55
2023-02-20T08:13:30.981Z,1.50
2023-02-20T08:16:34.072Z,1.80
2023-02-20T08:19:36.508Z,1.10
2023-02-20T08:22:41.934Z,1.13
2023-02-20T08:25:44.769Z,1.55
2023-02-20T08:28:47.467Z,1.48
2023-02-20T08:31:49.861Z,1.40
2023-02-20T08:34:52.164Z,1.50
2023-02-20T08:37:54.404Z,1.42
2023-02-20T08:40:56.900Z,1.63
2023-02-20T08:43:59.189Z,1.77
2023-02-20T08:47:01.519Z,1.70
2023-02-20T08:50:04.535Z,2.03
2023-02-20T08:53:12.985Z,1.75
2023-02-20T08:56:18.960Z,2.00
2023-02-20T08:59:21.286Z,2.13
2023-02-20T09:02:32.644Z,1.70
2023-02-20T09:05:37.013Z,2.05
2023-02-20T09:08:41.206Z,1.60
2023-02-20T09:11:44.665Z,1.80
2023-02-20T09:14:48.522Z,1.73
2023-02-20T09:17:51.317Z,1.77
2023-02-20T09:20:53.871Z,2.20
2023-02-20T09:23:58.405Z,2.22
2023-02-20T09:27:01.764Z,1.95
2023-02-20T09:30:04.450Z,1.85
2023-02-20T09:33:06.808Z,2.03
2023-02-20T09:36:09.280Z,2.10
2023-02-20T09:39:11.595Z,2.40
2023-02-20T09:42:32.846Z,2.03
2023-02-20T09:45:37.132Z,2.10
2023-02-20T09:48:39.954Z,2.00
2023-02-20T09:51:44.935Z,2.05
2023-02-20T09:54:55.462Z,2.00
2023-02-20T09:58:00.299Z,1.90
2023-02-20T10:01:03.077Z,1.80
2023-02-20T10:04:07.847Z,1.97
2023-02-20T10:07:30.724Z,1.60
2023-02-20T10:10:35.012Z,2.05
2023-02-20T10:13:40.758Z,1.80
2023-02-20T10:16:47.181Z,1.77
2023-02-20T10:20:08.223Z,2.07
2023-02-20T10:23:18.496Z,2.20
2023-02-20T10:26:23.902Z,1.85
2023-02-20T10:29:27.640Z,1.70
2023-02-20T10:32:48.823Z,2.00
2023-02-20T10:35:50.992Z,2.23
2023-02-20T10:38:55.921Z,2.50
2023-02-20T10:42:12.837Z,2.78
2023-02-20T10:45:18.920Z,2.38
2023-02-20T10:48:24.141Z,2.65
2023-02-20T10:51:29.290Z,2.53
2023-02-20T10:54:38.190Z,2.67
2023-02-20T10:58:06.919Z,2.70
2023-02-20T11:01:11.582Z,2.80
2023-02-20T11:04:16.082Z,3.33
2023-02-20T11:07:20.021Z,3.30
2023-02-20T11:10:22.548Z,3.42
2023-02-20T11:13:25.400Z,3.30
2023-02-20T11:16:37.849Z,3.13
2023-02-20T11:19:43.175Z,3.58
2023-02-20T11:22:46.999Z,3.00
2023-02-20T11:25:49.547Z,2.58
2023-02-20T11:29:16.733Z,3.05
2023-02-20T11:32:26.060Z,2.88
2023-02-20T11:35:32.992Z,3.55
2023-02-20T11:38:36.195Z,2.73
2023-02-20T11:41:39.841Z,2.88
2023-02-20T11:44:42.591Z,3.92
2023-02-20T11:47:45.491Z,3.05
2023-02-20T11:50:52.009Z,3.20
2023-02-20T11:54:12.570Z,2.80
2023-02-20T11:57:15.443Z,3.00
2023-02-20T12:00:27.879Z,3.10
2023-02-20T12:03:34.703Z,2.90
2023-02-20T12:06:43.516Z,3.17
2023-02-20T12:09:48.501Z,3.47
2023-02-20T12:12:50.960Z,2.90
2023-02-20T12:16:05.297Z,2.60
2023-02-20T12:19:14.676Z,2.60
2023-02-20T12:22:26.602Z,2.67
2023-02-20T12:25:47.838Z,2.70
2023-02-20T12:29:04.539Z,2.72
2023-02-20T12:32:21.268Z,3.08
2023-02-20T12:35:31.623Z,2.67
2023-02-20T12:38:47.493Z,2.88
2023-02-20T12:42:01.988Z,2.43
2023-02-20T12:45:04.463Z,2.70
2023-02-20T12:48:26.276Z,2.70
2023-02-20T12:51:47.369Z,2.60
2023-02-20T12:54:52.835Z,2.33
2023-02-20T12:58:01.357Z,2.20
2023-02-20T13:01:06.407Z,1.73
2023-02-20T13:04:19.638Z,2.47
2023-02-20T13:07:26.069Z,1.65
2023-02-20T13:10:30.910Z,2.55
2023-02-20T13:13:59.697Z,2.17
2023-02-20T13:17:01.878Z,2.17
2023-02-20T13:20:04.745Z,2.75
2023-02-20T13:23:26.550Z,2.08
2023-02-20T13:26:34.821Z,2.45
2023-02-20T13:29:56.705Z,2.40
2023-02-20T13:33:12.141Z,2.70
2023-02-20T13:36:37.762Z,3.00
2023-02-20T13:39:41.631Z,2.45
2023-02-20T13:42:43.850Z,2.15
2023-02-20T13:45:46.339Z,1.73
2023-02-20T13:48:52.676Z,2.40
2023-02-20T13:51:54.881Z,1.98
2023-02-20T13:54:57.860Z,1.80
2023-02-20T13:58:10.801Z,2.38
2023-02-20T14:01:13.161Z,2.00
2023-02-20T14:04:20.448Z,2.30
2023-02-20T14:07:29.718Z,1.80
2023-02-20T14:10:38.369Z,1.90
2023-02-20T14:13:41.653Z,1.45
2023-02-20T14:16:46.889Z,1.33
2023-02-20T14:19:55.662Z,1.30
2023-02-20T14:23:20.609Z,1.38
2023-02-20T14:26:25.454Z,1.38
2023-02-20T14:29:28.155Z,1.25
2023-02-20T14:32:30.498Z,1.50
2023-02-20T14:35:35.825Z,1.40
2023-02-20T14:38:38.019Z,1.35
2023-02-20T14:41:50.589Z,1.33
2023-02-20T14:44:57.752Z,1.60
2023-02-20T14:48:00.991Z,1.30
2023-02-20T14:51:04.927Z,1.52
2023-02-20T14:54:13.096Z,1.38
2023-02-20T14:57:15.567Z,1.70
2023-02-20T15:00:20.515Z,2.10
2023-02-20T15:03:30.571Z,3.03
2023-02-20T15:06:36.868Z,3.13
2023-02-20T15:09:43.582Z,3.20
2023-02-20T15:12:45.879Z,3.65
2023-02-20T15:15:50.523Z,3.72
2023-02-20T15:18:53.304Z,3.60
2023-02-20T15:21:57.194Z,3.60
2023-02-20T15:25:34.362Z,3.67
2023-02-20T15:28:36.624Z,3.70
2023-02-20T15:31:38.980Z,3.50
2023-02-20T15:34:41.618Z,3.00
2023-02-20T15:37:49.681Z,3.72
2023-02-20T15:40:55.509Z,4.10
2023-02-20T15:43:58.443Z,3.90
2023-02-20T15:47:00.920Z,3.95
2023-02-20T15:50:03.214Z,3.30
2023-02-20T15:53:06.189Z,3.70
2023-02-20T15:56:10.380Z,3.42
2023-02-20T15:59:13.343Z,3.60
2023-02-20T16:02:19.547Z,3.72
2023-02-20T16:05:22.230Z,4.10
2023-02-20T16:08:25.363Z,4.25
2023-02-20T16:11:31.747Z,4.65
2023-02-20T16:14:35.188Z,4.22
2023-02-20T16:17:37.442Z,5.28
2023-02-20T16:20:39.712Z,4.43
2023-02-20T16:23:45.624Z,4.30
2023-02-20T16:26:48.732Z,4.70
2023-02-20T16:29:51.321Z,4.32
2023-02-20T16:32:54.172Z,5.07
2023-02-20T16:35:58.559Z,5.17
2023-02-20T16:39:00.696Z,4.85
2023-02-20T16:42:03.606Z,4.70
2023-02-20T16:45:07.373Z,5.03
2023-02-20T16:48:17.653Z,4.45
2023-02-20T16:51:21.662Z,4.60
2023-02-20T16:54:24.032Z,4.80
2023-02-20T16:57:26.537Z,4.68
2023-02-20T17:00:30.509Z,4.53
2023-02-20T17:03:33.876Z,4.57
2023-02-20T17:06:36.210Z,4.50
2023-02-20T17:09:44.397Z,4.72
2023-02-20T17:12:47.959Z,4.97
2023-02-20T17:15:50.361Z,5.20
2023-02-20T17:18:52.598Z,5.22
2023-02-20T17:21:55.117Z,4.53
2023-02-20T17:24:58.173Z,4.60
2023-02-20T17:28:00.565Z,4.53
2023-02-20T17:31:03.133Z,4.97
2023-02-20T17:34:05.452Z,5.35
2023-02-20T17:37:08.531Z,5.40
2023-02-20T17:40:12.089Z,6.63
2023-02-20T17:43:14.437Z,6.00
2023-02-20T17:46:17.474Z,7.10
2023-02-20T17:49:20.850Z,6.25
2023-02-20T17:52:24.873Z,6.97
2023-02-20T17:55:27.452Z,6.03
2023-02-20T17:58:29.818Z,5.90
2023-02-20T18:01:32.145Z,5.45
2023-02-20T18:04:34.870Z,5.45
2023-02-20T18:07:37.412Z,7.07
2023-02-20T18:10:39.749Z,5.18
2023-02-20T18:13:42.170Z,5.82
2023-02-20T18:16:44.570Z,5.63
2023-02-20T18:19:46.952Z,6.40
2023-02-20T18:22:49.310Z,6.03
2023-02-20T18:25:51.850Z,5.25
2023-02-20T18:28:54.175Z,5.47
2023-02-20T18:31:59.596Z,5.57
2023-02-20T18:35:01.857Z,5.88
2023-02-20T18:38:04.331Z,6.67
2023-02-20T18:41:09.286Z,7.45
2023-02-20T18:44:11.713Z,7.72
2023-02-20T18:47:14.558Z,7.90
2023-02-20T18:50:17.191Z,7.18
2023-02-20T18:53:19.474Z,6.40
2023-02-20T18:56:22.400Z,6.57
2023-02-20T18:59:27.248Z,6.80
2023-02-20T19:02:29.662Z,6.50
2023-02-20T19:05:31.952Z,6.70
2023-02-20T19:08:34.338Z,6.40
2023-02-20T19:11:36.545Z,5.63
2023-02-20T19:14:39.257Z,6.35
2023-02-20T19:17:41.527Z,5.70
2023-02-20T19:20:43.962Z,6.53
2023-02-20T19:23:46.761Z,6.80
2023-02-20T19:26:49.276Z,6.88
2023-02-20T19:29:51.747Z,6.50
2023-02-20T19:32:54.115Z,6.20
2023-02-20T19:35:56.526Z,7.80
2023-02-20T19:38:59.322Z,7.60
2023-02-20T19:42:01.722Z,6.95
2023-02-20T19:45:04.778Z,8.18
2023-02-20T19:48:07.248Z,7.10
2023-02-20T19:51:09.800Z,7.63
2023-02-20T19:54:11.927Z,8.40
2023-02-20T19:57:14.648Z,8.20
2023-02-20T20:00:20.584Z,8.75
2023-02-20T20:03:22.977Z,8.50
2023-02-20T20:06:26.426Z,9.18
2023-02-20T20:09:36.113Z,8.67
2023-02-20T20:12:48.246Z,9.13
2023-02-20T20:15:50.409Z,8.77
2023-02-20T20:18:53.497Z,7.80
2023-02-20T20:21:55.911Z,8.38
2023-02-20T20:24:58.719Z,8.77
2023-02-20T20:28:02.877Z,8.25
2023-02-20T20:31:06.224Z,9.23
2023-02-20T20:34:08.791Z,8.88
2023-02-20T20:37:11.144Z,9.02
2023-02-20T20:40:14.498Z,8.37
2023-02-20T20:43:16.990Z,9.00
2023-02-20T20:46:19.552Z,8.93
2023-02-20T20:49:22.320Z,8.38
2023-02-20T20:52:26.795Z,8.88
2023-02-20T20:55:29.432Z,8.93
2023-02-20T20:58:32.847Z,9.38
2023-02-20T21:01:35.374Z,9.77
2023-02-20T21:04:37.826Z,10.18
2023-02-20T21:07:40.154Z,10.18
2023-02-20T21:10:42.498Z,9.63
2023-02-20T21:13:48.604Z,10.35
2023-02-20T21:16:50.938Z,9.63
2023-02-20T21:19:53.171Z,10.65
2023-02-20T21:22:55.445Z,9.95
2023-02-20T21:25:57.762Z,10.87
2023-02-20T21:29:00.298Z,10.07
2023-02-20T21:32:02.842Z,10.10
2023-02-20T21:35:05.408Z,10.23
2023-02-20T21:38:07.950Z,10.90
2023-02-20T21:41:30.302Z,10.07
2023-02-20T21:44:32.795Z,10.65
2023-02-20T21:47:34.979Z,11.30
2023-02-20T21:50:37.469Z,10.93
2023-02-20T21:53:39.649Z,10.10
2023-02-20T21:56:42.284Z,9.93
2023-02-20T21:59:44.489Z,11.02
2023-02-20T22:02:46.681Z,11.25
2023-02-20T22:05:48.871Z,11.00
2023-02-20T22:09:09.694Z,9.90
2023-02-20T22:12:30.727Z,9.47
2023-02-20T22:15:51.629Z,9.10
2023-02-20T22:19:13.424Z,8.93
2023-02-20T22:22:34.365Z,8.98
2023-02-20T22:25:55.091Z,9.20
2023-02-20T22:29:15.934Z,9.80
2023-02-20T22:32:36.887Z,8.90
2023-02-20T22:35:57.339Z,8.57
2023-02-20T22:39:17.998Z,9.20
2023-02-20T22:42:38.858Z,8.65
2023-02-20T22:45:59.827Z,10.67
2023-02-20T22:49:20.730Z,10.25
2023-02-20T22:52:41.562Z,8.68
2023-02-20T22:56:02.049Z,9.10
2023-02-20T22:59:22.890Z,9.88
2023-02-20T23:02:45.183Z,9.20
2023-02-20T23:06:17.615Z,9.02
2023-02-20T23:09:39.202Z,9.13
2023-02-20T23:13:00.234Z,8.18
2023-02-20T23:16:21.062Z,8.32
2023-02-20T23:19:42.030Z,8.03
2023-02-20T23:23:02.900Z,8.13
2023-02-20T23:26:24.376Z,8.20
2023-02-20T23:29:45.339Z,8.82
2023-02-20T23:33:06.129Z,9.68
2023-02-20T23:36:27.140Z,8.70
2023-02-20T23:39:47.806Z,7.72
2023-02-20T23:43:10.176Z,7.85
2023-02-20T23:46:30.998Z,8.43
2023-02-20T23:49:51.804Z,8.45
2023-02-20T23:53:12.688Z,8.53
2023-02-20T23:56:33.209Z,8.65
2023-02-20T23:59:53.968Z,8.63
